Time;durP1;ratioP1;P1;durP2;ratioP2;P2;SDS_P1;SDS_P2;PMS_P1;PMS_P2;Temp;Humidity;BMP_temperature;BMP_pressure;BME280_temperature;BME280_humidity;BME280_pressure;Samples;Min_cycle;Max_cycle;Signal;HPM_P1;HPM_P2
2021/12/20 00:01:18;;;;;;;10.20;5.18;;;2.00;76.40;;;;;;5035135;28;20022;-24
2021/12/20 00:03:45;;;;;;;31.30;9.75;;;2.00;76.40;;;;;;5035063;28;20057;-24
2021/12/20 00:06:11;;;;;;;27.70;9.07;;;2.00;76.40;;;;;;5033617;28;20402;-24
2021/12/20 00:08:37;;;;;;;39.17;10.93;;;2.10;76.30;;;;;;5033569;28;20025;-25
2021/12/20 00:11:04;;;;;;;31.15;9.52;;;2.10;76.40;;;;;;5033985;28;20029;-25
2021/12/20 00:13:30;;;;;;;22.15;7.18;;;2.10;76.40;;;;;;5035192;28;20034;-24
2021/12/20 00:15:56;;;;;;;23.85;9.32;;;2.10;76.30;;;;;;5035066;28;20048;-25
2021/12/20 00:18:22;;;;;;;40.38;10.15;;;2.10;76.50;;;;;;5034568;28;20025;-24
2021/12/20 00:20:48;;;;;;;65.70;15.93;;;2.10;76.20;;;;;;5034763;28;20029;-25
2021/12/20 00:23:14;;;;;;;17.30;7.22;;;2.10;76.40;;;;;;5034606;28;20025;-23
2021/12/20 00:25:42;;;;;;;14.13;6.57;;;2.10;76.10;;;;;;5034657;28;20029;-25
2021/12/20 00:28:08;;;;;;;45.53;12.43;;;2.10;76.10;;;;;;5034511;28;20496;-24
2021/12/20 00:30:34;;;;;;;25.88;9.30;;;2.10;76.10;;;;;;5034337;28;20068;-24
2021/12/20 00:33:00;;;;;;;30.00;8.00;;;2.10;76.20;;;;;;5034548;28;20029;-24
2021/12/20 00:35:26;;;;;;;4.70;2.80;;;2.10;76.20;;;;;;5034507;28;20076;-25
2021/12/20 00:40:37;;;;;;;103.18;19.08;;;2.10;75.80;;;;;;5034721;28;20555;-25
2021/12/20 00:43:04;;;;;;;25.75;10.45;;;2.10;76.50;;;;;;5034304;28;20033;-25
2021/12/20 00:45:36;;;;;;;17.85;8.55;;;2.00;76.30;;;;;;5034576;28;20017;-25
2021/12/20 00:48:03;;;;;;;87.72;19.38;;;2.00;76.20;;;;;;5034324;28;20068;-25
2021/12/20 00:50:30;;;;;;;28.25;8.45;;;1.90;76.40;;;;;;5034903;28;20033;-24
2021/12/20 00:52:57;;;;;;;41.88;13.82;;;1.90;76.70;;;;;;5034005;28;20120;-24
2021/12/20 00:55:26;;;;;;;25.30;9.45;;;1.90;76.60;;;;;;5033917;28;20103;-24
2021/12/20 00:57:59;;;;;;;12.52;5.68;;;1.80;76.70;;;;;;5034375;28;20030;-25
2021/12/20 01:00:31;;;;;;;6.03;3.05;;;1.80;76.50;;;;;;5033816;28;20436;-25
2021/12/20 01:02:58;;;;;;;24.27;8.00;;;1.80;76.60;;;;;;5034289;28;20021;-25
2021/12/20 01:05:27;;;;;;;5.13;2.88;;;1.70;76.70;;;;;;5034240;28;20052;-24
2021/12/20 01:07:56;;;;;;;18.05;6.75;;;1.70;76.70;;;;;;5033698;28;20026;-25
2021/12/20 01:10:24;;;;;;;8.45;4.22;;;1.70;76.60;;;;;;5033956;28;20022;-24
2021/12/20 01:12:51;;;;;;;16.52;7.45;;;1.70;76.60;;;;;;5033724;28;20165;-25
2021/12/20 01:15:25;;;;;;;32.45;7.90;;;1.70;76.90;;;;;;5034028;28;20108;-25
2021/12/20 01:17:53;;;;;;;55.53;14.60;;;1.70;76.70;;;;;;5034041;28;20053;-24
2021/12/20 01:20:20;;;;;;;31.10;11.57;;;1.70;76.70;;;;;;5033421;28;20026;-25
2021/12/20 01:22:48;;;;;;;12.38;5.53;;;1.70;76.80;;;;;;5033756;28;20116;-25
2021/12/20 01:25:15;;;;;;;9.98;4.75;;;1.70;76.70;;;;;;5033762;28;20030;-24
2021/12/20 01:27:41;;;;;;;16.95;6.80;;;1.80;76.60;;;;;;5033441;28;20424;-24
2021/12/20 01:30:10;;;;;;;58.00;15.32;;;1.90;76.60;;;;;;5034140;28;20029;-25
2021/12/20 01:32:37;;;;;;;7.00;4.00;;;1.90;76.90;;;;;;5031506;28;20060;-25
2021/12/20 01:35:04;;;;;;;6.32;3.25;;;1.90;76.60;;;;;;5033703;28;20045;-25
2021/12/20 01:37:30;;;;;;;21.10;7.35;;;1.90;76.40;;;;;;5033517;28;20025;-25
2021/12/20 01:39:58;;;;;;;35.30;11.75;;;1.90;76.40;;;;;;5033671;28;20032;-25
2021/12/20 01:42:27;;;;;;;26.05;10.85;;;2.00;76.40;;;;;;5033403;28;20508;-25
2021/12/20 01:44:56;;;;;;;12.77;6.53;;;2.00;76.20;;;;;;5033596;28;20033;-24
2021/12/20 01:47:24;;;;;;;11.60;5.82;;;1.90;76.20;;;;;;5033778;28;20033;-24
2021/12/20 01:50:10;;;;;;;31.23;9.27;;;2.00;76.20;;;;;;5033536;28;20038;-25
2021/12/20 01:52:43;;;;;;;10.38;3.65;;;2.00;76.10;;;;;;5032912;28;20029;-24
2021/12/20 01:55:13;;;;;;;5.03;2.75;;;1.90;76.00;;;;;;5033011;28;20050;-24
2021/12/20 01:57:40;;;;;;;16.83;8.80;;;1.90;75.90;;;;;;5031931;28;20452;-24
2021/12/20 02:00:09;;;;;;;15.75;6.10;;;1.90;75.90;;;;;;5033124;28;20493;-25
2021/12/20 02:02:36;;;;;;;9.05;3.40;;;1.90;76.00;;;;;;5033119;28;20026;-25
2021/12/20 02:05:13;;;;;;;62.08;16.17;;;1.90;75.80;;;;;;5033313;28;20132;-24
2021/12/20 02:07:52;;;;;;;51.80;15.93;;;1.90;75.80;;;;;;5032918;28;20022;-24
2021/12/20 02:10:19;;;;;;;23.33;10.32;;;1.80;76.40;;;;;;5032803;28;20029;-24
2021/12/20 02:12:46;;;;;;;46.92;15.80;;;1.80;76.60;;;;;;5032990;28;20108;-25
2021/12/20 02:15:12;;;;;;;12.23;6.70;;;1.70;77.20;;;;;;5032908;28;20067;-25
2021/12/20 02:17:39;;;;;;;20.88;7.45;;;1.60;77.50;;;;;;5032875;28;20020;-25
2021/12/20 02:20:06;;;;;;;47.20;13.98;;;1.60;77.30;;;;;;5032874;28;20448;-25
2021/12/20 02:22:32;;;;;;;25.95;10.25;;;1.60;77.20;;;;;;5032565;28;20487;-24
2021/12/20 02:24:58;;;;;;;14.70;5.72;;;1.50;78.20;;;;;;5033166;28;20018;-24
2021/12/20 02:27:24;;;;;;;60.55;16.38;;;1.50;77.40;;;;;;5033059;28;20060;-25
2021/12/20 02:30:11;;;;;;;21.42;7.85;;;1.50;77.80;;;;;;5033441;28;20474;-25
2021/12/20 02:38:41;;;;;;;27.10;11.65;;;1.40;78.20;;;;;;5010844;28;20048;-25
2021/12/20 02:41:11;;;;;;;26.67;12.23;;;1.40;78.20;;;;;;5011416;28;20076;-25
2021/12/20 02:43:41;;;;;;;33.47;14.35;;;1.40;77.70;;;;;;5024303;28;20512;-24
2021/12/20 02:49:06;;;;;;;42.22;13.50;;;1.40;78.80;;;;;;5014926;28;20037;-24
2021/12/20 02:51:33;;;;;;;37.33;13.82;;;1.40;79.00;;;;;;5014492;28;20080;-25
2021/12/20 02:54:01;;;;;;;58.33;18.88;;;1.50;78.70;;;;;;5014326;28;20046;-25
2021/12/20 02:56:27;;;;;;;27.00;12.55;;;1.40;79.80;;;;;;5014326;28;20074;-24
2021/12/20 02:58:54;;;;;;;30.95;13.52;;;1.50;79.00;;;;;;5014533;28;20144;-25
2021/12/20 03:01:20;;;;;;;37.60;14.32;;;1.50;79.20;;;;;;5014443;28;20121;-24
2021/12/20 03:03:49;;;;;;;28.35;11.60;;;1.50;78.70;;;;;;5014438;28;20034;-24
2021/12/20 03:06:20;;;;;;;26.23;13.75;;;1.60;78.50;;;;;;5014080;28;20547;-24
2021/12/20 03:08:51;;;;;;;27.02;13.30;;;1.60;78.30;;;;;;4998620;28;20129;-24
2021/12/20 03:11:18;;;;;;;37.15;13.93;;;1.50;78.40;;;;;;5014305;28;20018;-24
2021/12/20 03:13:47;;;;;;;45.50;18.02;;;1.50;78.40;;;;;;5014228;28;20038;-24
2021/12/20 03:16:13;;;;;;;23.35;9.85;;;1.40;79.20;;;;;;5014093;28;20434;-25
2021/12/20 03:18:39;;;;;;;41.88;15.05;;;1.50;78.70;;;;;;5014163;28;20043;-26
2021/12/20 03:21:05;;;;;;;54.10;17.05;;;1.40;78.90;;;;;;5014366;28;20034;-25
2021/12/20 03:23:31;;;;;;;25.38;13.30;;;1.40;79.10;;;;;;5014065;28;20127;-25
2021/12/20 03:25:57;;;;;;;24.48;10.18;;;1.40;79.40;;;;;;5015530;28;20037;-25
2021/12/20 03:28:23;;;;;;;45.03;15.25;;;1.40;78.70;;;;;;5015803;28;20026;-25
2021/12/20 03:30:49;;;;;;;23.35;10.93;;;1.40;79.10;;;;;;5016183;28;20029;-24
2021/12/20 03:33:15;;;;;;;62.80;19.88;;;1.40;78.70;;;;;;5016495;28;20026;-25
2021/12/20 03:35:41;;;;;;;50.17;18.23;;;1.40;79.00;;;;;;5016169;28;20488;-25
2021/12/20 03:38:08;;;;;;;33.17;12.20;;;1.30;79.30;;;;;;5015784;28;20046;-24
2021/12/20 03:40:37;;;;;;;34.50;14.95;;;1.30;78.90;;;;;;5015507;28;20030;-24
2021/12/20 03:43:05;;;;;;;59.83;17.40;;;1.30;79.60;;;;;;5015976;28;20494;-24
2021/12/20 03:45:33;;;;;;;58.10;20.25;;;1.30;79.40;;;;;;5015665;28;20121;-25
2021/12/20 03:48:00;;;;;;;32.10;13.32;;;1.20;79.90;;;;;;5015526;28;20026;-24
2021/12/20 03:50:27;;;;;;;27.02;11.80;;;1.20;79.90;;;;;;5015665;28;20033;-25
2021/12/20 03:52:53;;;;;;;40.08;17.90;;;1.20;79.50;;;;;;5015643;28;20040;-25
2021/12/20 03:55:19;;;;;;;46.65;16.42;;;1.20;80.00;;;;;;5032951;28;20099;-25
2021/12/20 03:57:45;;;;;;;29.75;12.20;;;1.10;80.10;;;;;;5035447;28;20022;-25
2021/12/20 04:00:14;;;;;;;40.28;13.65;;;1.10;80.00;;;;;;5035331;28;20022;-24
2021/12/20 04:02:44;;;;;;;51.55;19.10;;;1.10;79.80;;;;;;5035427;28;20032;-24
2021/12/20 04:05:11;;;;;;;46.15;18.35;;;1.20;80.00;;;;;;5035392;28;20032;-25
2021/12/20 04:07:37;;;;;;;43.30;16.73;;;1.20;80.60;;;;;;5033657;28;20021;-25
2021/12/20 04:10:06;;;;;;;27.67;11.07;;;1.20;80.20;;;;;;5033758;28;20033;-24
2021/12/20 04:12:32;;;;;;;51.55;19.63;;;1.30;79.20;;;;;;5035152;28;20017;-24
2021/12/20 04:14:58;;;;;;;51.72;20.08;;;1.30;79.60;;;;;;5034849;28;20032;-25
2021/12/20 04:17:24;;;;;;;46.55;20.08;;;1.20;80.60;;;;;;5034831;28;20029;-24
2021/12/20 04:19:50;;;;;;;56.83;21.70;;;1.30;80.80;;;;;;5034785;28;20398;-24
2021/12/20 04:22:18;;;;;;;37.00;17.25;;;1.30;80.40;;;;;;5034700;28;20050;-24
2021/12/20 04:24:45;;;;;;;30.15;13.68;;;1.30;80.50;;;;;;5034929;28;20493;-25
2021/12/20 04:27:11;;;;;;;31.55;14.60;;;1.20;80.40;;;;;;5034915;28;20022;-25
2021/12/20 04:29:37;;;;;;;36.00;16.98;;;1.20;80.40;;;;;;5034563;28;20034;-25
2021/12/20 04:32:04;;;;;;;43.20;16.63;;;1.20;80.00;;;;;;5034422;28;20037;-25
2021/12/20 04:34:30;;;;;;;46.72;18.63;;;1.20;80.30;;;;;;5034578;28;20034;-24
2021/12/20 04:36:57;;;;;;;48.05;18.27;;;1.20;80.20;;;;;;5034340;28;20057;-24
2021/12/20 04:39:28;;;;;;;45.35;16.75;;;1.10;80.10;;;;;;5034411;28;20029;-24
2021/12/20 04:41:54;;;;;;;65.55;21.42;;;1.10;79.80;;;;;;5034943;28;20041;-24
2021/12/20 04:44:20;;;;;;;21.50;11.32;;;1.10;80.40;;;;;;5034113;28;20037;-24
2021/12/20 04:46:46;;;;;;;38.47;16.55;;;1.10;79.80;;;;;;5034152;28;20075;-25
2021/12/20 04:49:12;;;;;;;28.38;13.27;;;1.10;80.20;;;;;;5034302;28;20029;-24
2021/12/20 04:51:38;;;;;;;20.83;9.98;;;1.10;80.00;;;;;;5034390;28;20489;-25
2021/12/20 04:54:04;;;;;;;25.30;8.15;;;1.10;79.80;;;;;;5033921;28;20156;-25
2021/12/20 04:56:30;;;;;;;50.40;18.20;;;1.20;79.80;;;;;;5034163;28;20047;-25
2021/12/20 04:58:56;;;;;;;62.17;19.38;;;1.20;79.50;;;;;;5034231;28;20389;-24
2021/12/20 05:01:22;;;;;;;10.20;5.30;;;1.20;79.60;;;;;;5033960;28;20033;-24
2021/12/20 05:03:48;;;;;;;41.28;17.20;;;1.30;79.10;;;;;;5034810;28;20032;-25
2021/12/20 05:06:15;;;;;;;39.35;13.32;;;1.30;79.40;;;;;;5033036;28;20083;-25
2021/12/20 05:08:49;;;;;;;46.90;20.15;;;1.30;78.90;;;;;;5033827;28;20056;-25
2021/12/20 05:11:16;;;;;;;51.47;21.77;;;1.30;79.20;;;;;;5034179;28;20060;-25
2021/12/20 05:13:43;;;;;;;34.28;13.57;;;1.30;79.10;;;;;;5033825;28;20040;-25
2021/12/20 05:16:09;;;;;;;38.38;15.23;;;1.30;78.80;;;;;;5034345;28;20025;-25
2021/12/20 05:18:35;;;;;;;33.35;17.27;;;1.20;79.30;;;;;;5033452;28;20037;-25
2021/12/20 05:21:01;;;;;;;53.63;18.38;;;1.20;79.40;;;;;;5034002;28;20022;-25
2021/12/20 05:23:27;;;;;;;53.55;19.60;;;1.10;79.50;;;;;;5033469;28;20072;-25
2021/12/20 05:25:55;;;;;;;35.10;15.27;;;1.10;79.70;;;;;;5033688;28;20057;-25
2021/12/20 05:28:22;;;;;;;63.45;20.63;;;1.10;79.80;;;;;;5033538;28;20045;-25
2021/12/20 05:30:50;;;;;;;49.33;21.08;;;1.00;79.90;;;;;;5033810;28;20030;-25
2021/12/20 05:33:17;;;;;;;54.30;19.05;;;1.00;80.00;;;;;;5033438;28;20116;-25
2021/12/20 05:35:42;;;;;;;35.47;16.48;;;0.90;80.00;;;;;;5033782;28;20068;-25
2021/12/20 05:38:08;;;;;;;57.83;21.85;;;1.00;79.80;;;;;;5033458;28;20057;-25
2021/12/20 05:40:35;;;;;;;48.97;20.92;;;0.90;80.30;;;;;;5033234;28;20542;-25
2021/12/20 05:43:02;;;;;;;45.78;20.10;;;0.90;80.50;;;;;;5033334;28;20108;-24
2021/12/20 05:45:28;;;;;;;59.45;22.20;;;0.80;80.10;;;;;;5033299;28;20029;-24
2021/12/20 05:47:54;;;;;;;54.45;23.15;;;0.80;80.50;;;;;;5033509;28;20028;-24
2021/12/20 05:50:22;;;;;;;50.28;20.55;;;0.70;80.60;;;;;;5032948;28;20402;-24
2021/12/20 05:52:48;;;;;;;51.42;19.33;;;0.80;80.50;;;;;;5033589;28;20022;-25
2021/12/20 05:55:14;;;;;;;63.90;22.45;;;0.70;80.80;;;;;;5032901;28;20052;-24
2021/12/20 05:57:40;;;;;;;36.42;15.98;;;0.60;80.80;;;;;;5033129;28;20470;-25
2021/12/20 06:00:14;;;;;;;24.13;11.93;;;0.70;80.90;;;;;;5033067;28;20386;-24
2021/12/20 06:02:42;;;;;;;;;;;0.70;80.40;;;;;;5033574;28;20033;-25
2021/12/20 06:05:09;;;;;;;28.42;14.55;;;0.80;80.70;;;;;;5033370;28;19904;-25
2021/12/20 06:07:39;;;;;;;35.40;15.65;;;0.80;80.90;;;;;;5033191;28;20025;-25
2021/12/20 06:10:07;;;;;;;39.33;17.85;;;0.80;80.50;;;;;;5033326;28;20033;-25
2021/12/20 06:12:35;;;;;;;31.25;15.43;;;0.90;80.50;;;;;;5032842;28;20079;-25
2021/12/20 06:15:03;;;;;;;68.65;24.75;;;0.90;80.20;;;;;;5032945;28;20401;-25
2021/12/20 06:17:29;;;;;;;42.30;18.50;;;0.90;80.80;;;;;;5034014;28;20017;-25
2021/12/20 06:19:55;;;;;;;37.08;17.40;;;0.90;80.70;;;;;;5037368;28;20099;-24
2021/12/20 06:22:21;;;;;;;30.05;16.48;;;0.90;80.40;;;;;;5037036;28;20458;-25
2021/12/20 06:24:47;;;;;;;39.25;18.73;;;0.90;80.80;;;;;;5036966;28;20061;-25
2021/12/20 06:27:13;;;;;;;59.88;22.55;;;0.90;80.80;;;;;;5037154;28;20036;-25
2021/12/20 06:29:39;;;;;;;41.08;18.98;;;0.90;81.00;;;;;;5037120;28;20030;-25
2021/12/20 06:32:05;;;;;;;45.40;19.73;;;0.90;80.90;;;;;;5037140;28;20416;-25
2021/12/20 06:34:31;;;;;;;34.13;16.90;;;0.90;81.00;;;;;;5036531;28;20022;-25
2021/12/20 06:36:57;;;;;;;38.38;17.73;;;0.90;81.10;;;;;;5036568;28;20022;-25
2021/12/20 06:39:23;;;;;;;32.45;16.27;;;0.90;81.30;;;;;;5037299;28;20029;-24
2021/12/20 06:41:51;;;;;;;56.33;24.08;;;0.90;81.10;;;;;;5037755;28;20152;-25
2021/12/20 06:44:18;;;;;;;34.50;17.17;;;0.90;81.60;;;;;;5036723;28;20022;-25
2021/12/20 06:46:45;;;;;;;67.30;22.80;;;0.90;81.20;;;;;;5037053;28;20500;-25
2021/12/20 06:49:12;;;;;;;40.42;15.40;;;0.90;81.00;;;;;;5037126;28;20466;-24
2021/12/20 06:51:41;;;;;;;55.65;21.95;;;1.00;80.70;;;;;;5036357;28;20026;-25
2021/12/20 06:54:09;;;;;;;49.55;21.42;;;1.10;80.70;;;;;;5036133;28;20148;-25
2021/12/20 06:56:35;;;;;;;67.88;25.58;;;1.10;80.80;;;;;;5036131;28;20030;-24
2021/12/20 06:59:01;;;;;;;67.55;23.58;;;1.00;81.60;;;;;;5036624;28;20033;-25
2021/12/20 07:01:27;;;;;;;52.78;22.65;;;1.10;81.70;;;;;;5036291;28;20057;-25
2021/12/20 07:03:53;;;;;;;49.63;19.60;;;1.10;81.70;;;;;;5036564;28;20068;-25
2021/12/20 07:06:19;;;;;;;38.35;16.10;;;1.10;81.30;;;;;;5035908;28;20385;-25
2021/12/20 07:08:45;;;;;;;39.25;18.85;;;1.10;81.20;;;;;;5036355;28;20105;-25
2021/12/20 07:11:11;;;;;;;53.60;22.17;;;1.10;81.10;;;;;;5036157;28;20532;-25
2021/12/20 07:13:39;;;;;;;39.58;18.45;;;1.10;81.40;;;;;;5036382;28;20060;-24
2021/12/20 07:16:06;;;;;;;40.33;18.73;;;1.00;81.90;;;;;;5036027;28;20044;-25
2021/12/20 07:18:33;;;;;;;46.72;22.48;;;1.10;81.90;;;;;;5036154;28;20124;-25
2021/12/20 07:20:58;;;;;;;48.08;18.45;;;1.10;81.70;;;;;;5036201;28;20033;-25
2021/12/20 07:23:24;;;;;;;34.08;16.05;;;1.10;82.00;;;;;;5036094;28;20121;-25
2021/12/20 07:25:51;;;;;;;35.58;14.93;;;1.00;81.90;;;;;;5035846;28;20060;-23
2021/12/20 07:28:17;;;;;;;32.25;15.27;;;1.10;81.70;;;;;;5035524;28;20120;-25
2021/12/20 07:30:48;;;;;;;40.83;19.30;;;1.10;81.90;;;;;;5034768;28;20057;-25
2021/12/20 07:33:15;;;;;;;38.03;18.33;;;1.20;81.70;;;;;;5035663;28;20037;-23
2021/12/20 07:35:45;;;;;;;39.03;18.83;;;1.20;81.70;;;;;;5035648;28;20108;-27
2021/12/20 07:38:13;;;;;;;35.17;16.73;;;1.30;81.60;;;;;;5035825;28;20086;-26
2021/12/20 07:40:48;;;;;;;32.08;16.48;;;1.30;81.50;;;;;;5035738;28;20025;-27
2021/12/20 07:43:16;;;;;;;28.92;15.18;;;1.30;81.50;;;;;;5036232;28;20052;-26
2021/12/20 07:45:43;;;;;;;28.52;14.40;;;1.30;81.50;;;;;;5034253;28;20029;-26
2021/12/20 07:48:09;;;;;;;30.60;16.10;;;1.30;81.50;;;;;;5035421;28;20022;-25
2021/12/20 07:50:36;;;;;;;29.17;14.82;;;1.30;81.80;;;;;;5035159;28;20044;-25
2021/12/20 07:53:02;;;;;;;31.77;15.63;;;1.30;81.70;;;;;;5035566;28;20076;-26
2021/12/20 07:55:28;;;;;;;38.35;18.88;;;1.30;82.00;;;;;;5035140;28;20060;-26
2021/12/20 07:57:54;;;;;;;31.63;15.43;;;1.20;82.70;;;;;;5035515;28;20025;-25
2021/12/20 08:00:20;;;;;;;25.83;13.63;;;1.30;82.40;;;;;;5035622;28;20356;-25
2021/12/20 08:02:47;;;;;;;28.50;13.68;;;1.30;82.10;;;;;;5035163;28;20503;-26
2021/12/20 08:05:15;;;;;;;28.90;14.27;;;1.40;82.10;;;;;;5035430;28;20036;-26
2021/12/20 08:07:41;;;;;;;36.22;17.25;;;1.40;82.20;;;;;;5034893;28;20494;-25
2021/12/20 08:10:09;;;;;;;38.70;17.95;;;1.40;82.20;;;;;;5035084;28;20428;-25
2021/12/20 08:12:35;;;;;;;37.83;16.50;;;1.40;82.30;;;;;;5034805;28;20025;-25
2021/12/20 08:15:01;;;;;;;33.67;15.85;;;1.50;82.40;;;;;;5035464;28;20545;-25
2021/12/20 08:17:28;;;;;;;32.33;14.82;;;1.50;82.50;;;;;;5035177;28;20025;-25
2021/12/20 08:19:55;;;;;;;25.65;12.13;;;1.50;82.20;;;;;;5035156;28;20091;-26
2021/12/20 08:22:24;;;;;;;34.63;14.63;;;1.60;81.70;;;;;;5034570;28;20052;-24
2021/12/20 08:24:50;;;;;;;41.58;15.20;;;1.50;82.10;;;;;;5034689;28;20039;-25
2021/12/20 08:27:16;;;;;;;36.40;16.65;;;1.60;81.90;;;;;;5034914;28;20032;-25
2021/12/20 08:29:41;;;;;;;21.38;10.27;;;1.60;82.00;;;;;;5034940;28;20128;-26
2021/12/20 08:32:08;;;;;;;26.60;11.35;;;1.60;81.80;;;;;;5034559;28;20112;-25
2021/12/20 08:34:34;;;;;;;36.95;13.23;;;1.70;81.80;;;;;;5034640;28;20032;-25
2021/12/20 08:37:01;;;;;;;42.58;15.45;;;1.70;81.90;;;;;;5034367;28;20025;-25
2021/12/20 08:39:28;;;;;;;26.17;11.52;;;1.70;81.90;;;;;;5034434;28;20036;-25
2021/12/20 08:41:54;;;;;;;27.52;12.35;;;1.80;82.10;;;;;;5035109;28;20038;-26
2021/12/20 08:44:20;;;;;;;33.40;12.55;;;1.90;81.90;;;;;;5034255;28;20021;-25
2021/12/20 08:46:46;;;;;;;29.45;12.13;;;1.90;82.00;;;;;;5034526;28;20029;-26
2021/12/20 08:49:15;;;;;;;34.15;12.60;;;1.90;81.90;;;;;;5034632;28;20513;-25
2021/12/20 08:51:41;;;;;;;44.85;14.65;;;1.90;82.00;;;;;;5034232;28;20025;-25
2021/12/20 08:54:08;;;;;;;46.13;14.85;;;1.90;82.90;;;;;;5033936;28;20049;-26
2021/12/20 08:56:35;;;;;;;30.50;12.63;;;1.90;83.10;;;;;;5033996;28;20104;-26
2021/12/20 08:59:01;;;;;;;28.45;11.80;;;1.90;83.00;;;;;;5034095;28;20063;-25
2021/12/20 09:01:27;;;;;;;33.22;13.48;;;2.00;82.80;;;;;;5033246;28;20108;-25
2021/12/20 09:03:53;;;;;;;31.00;12.98;;;2.00;82.90;;;;;;5034310;28;20414;-26
2021/12/20 09:06:24;;;;;;;43.53;14.05;;;2.00;82.90;;;;;;5033835;28;20395;-25
2021/12/20 09:08:50;;;;;;;28.42;11.35;;;2.00;82.70;;;;;;5033031;28;20124;-24
2021/12/20 09:11:16;;;;;;;36.47;13.57;;;2.00;82.70;;;;;;5033859;28;20026;-25
2021/12/20 09:13:45;;;;;;;33.95;12.77;;;2.00;83.40;;;;;;5033834;28;20022;-25
2021/12/20 09:16:13;;;;;;;35.08;12.98;;;2.00;83.40;;;;;;5032892;28;20075;-24
2021/12/20 09:18:39;;;;;;;43.60;15.27;;;2.00;84.00;;;;;;5034058;28;20071;-24
2021/12/20 09:21:09;;;;;;;33.67;12.68;;;2.00;84.10;;;;;;5033650;28;20030;-25
2021/12/20 09:23:36;;;;;;;24.02;9.52;;;2.10;83.70;;;;;;5033809;28;20424;-25
2021/12/20 09:26:03;;;;;;;22.48;8.95;;;2.20;83.60;;;;;;5032400;28;20429;-24
2021/12/20 09:28:29;;;;;;;31.90;11.73;;;2.20;82.70;;;;;;5033298;28;20508;-25
2021/12/20 09:30:55;;;;;;;28.63;10.52;;;2.30;83.20;;;;;;5032257;28;20037;-26
2021/12/20 09:33:21;;;;;;;34.53;13.27;;;2.30;83.10;;;;;;5034093;28;20109;-25
2021/12/20 09:35:50;;;;;;;31.65;11.27;;;2.30;83.90;;;;;;5033451;28;20041;-24
2021/12/20 09:38:20;;;;;;;34.25;13.30;;;2.30;84.10;;;;;;5033409;28;20026;-25
2021/12/20 09:43:56;;;;;;;38.67;15.35;;;2.50;83.90;;;;;;5033453;28;20032;-25
2021/12/20 09:46:24;;;;;;;32.92;13.10;;;2.60;84.80;;;;;;5033145;28;20068;-26
2021/12/20 09:48:51;;;;;;;31.17;11.90;;;2.70;85.50;;;;;;5033565;28;20572;-25
2021/12/20 09:51:20;;;;;;;36.13;16.02;;;2.90;84.30;;;;;;5033809;28;20060;-25
2021/12/20 09:53:47;;;;;;;38.05;15.95;;;3.00;85.10;;;;;;5032953;28;20038;-25
2021/12/20 09:56:14;;;;;;;44.42;19.55;;;3.20;85.50;;;;;;5033309;28;20024;-24
2021/12/20 09:58:41;;;;;;;47.92;22.38;;;3.40;85.90;;;;;;5031985;28;20026;-26
2021/12/20 10:01:12;;;;;;;54.75;23.98;;;3.60;86.20;;;;;;5033336;28;20025;-25
2021/12/20 10:03:39;;;;;;;43.15;19.80;;;3.80;85.80;;;;;;5033454;28;20034;-25
2021/12/20 10:06:06;;;;;;;46.13;20.85;;;3.90;86.60;;;;;;5033062;28;20528;-24
2021/12/20 10:08:34;;;;;;;47.10;21.48;;;4.20;86.60;;;;;;5032759;28;20033;-26
2021/12/20 10:11:31;;;;;;;51.28;22.58;;;4.40;86.00;;;;;;5033053;28;20152;-26
2021/12/20 10:14:08;;;;;;;42.97;18.67;;;4.70;85.90;;;;;;5032491;28;20029;-26
2021/12/20 10:16:36;;;;;;;31.13;13.32;;;5.00;85.10;;;;;;5033126;28;20026;-26
2021/12/20 10:19:04;;;;;;;30.23;14.52;;;5.20;84.20;;;;;;5032924;28;20028;-26
2021/12/20 10:21:41;;;;;;;36.38;18.10;;;5.50;84.30;;;;;;5032902;28;20452;-25
2021/12/20 10:24:08;;;;;;;32.63;15.25;;;5.80;83.40;;;;;;5032861;28;20025;-25
2021/12/20 10:26:48;;;;;;;35.55;17.40;;;6.00;82.90;;;;;;5032959;28;20418;-26
2021/12/20 10:29:20;;;;;;;24.52;12.90;;;6.30;82.40;;;;;;5033259;28;20363;-27
2021/12/20 10:31:46;;;;;;;25.05;13.63;;;6.50;81.50;;;;;;5032820;28;20465;-26
2021/12/20 10:34:14;;;;;;;26.10;13.35;;;6.80;80.50;;;;;;5032699;28;20119;-26
2021/12/20 10:36:57;;;;;;;24.30;12.98;;;7.00;79.10;;;;;;5032691;28;20027;-26
2021/12/20 10:39:38;;;;;;;21.38;11.27;;;7.30;76.30;;;;;;5033050;28;20029;-25
2021/12/20 10:42:26;;;;;;;20.15;10.73;;;7.50;77.30;;;;;;5033103;28;20029;-26
2021/12/20 10:45:13;;;;;;;22.52;11.70;;;7.80;76.50;;;;;;5033068;28;20021;-26
2021/12/20 10:47:40;;;;;;;25.02;13.35;;;7.90;76.20;;;;;;5032691;28;20040;-25
2021/12/20 10:50:27;;;;;;;23.33;11.82;;;8.10;74.60;;;;;;5032679;28;20034;-26
2021/12/20 10:53:11;;;;;;;21.17;11.65;;;8.20;75.00;;;;;;5033074;28;20083;-27
2021/12/20 10:55:46;;;;;;;20.42;11.60;;;8.30;74.90;;;;;;5032756;28;20060;-26
2021/12/20 10:58:28;;;;;;;21.55;12.13;;;8.40;74.30;;;;;;5047958;28;20052;-30
2021/12/20 11:01:38;;;;;;;21.50;11.82;;;8.60;74.40;;;;;;5032962;28;20028;-26
2021/12/20 11:04:08;;;;;;;22.20;13.32;;;8.70;74.30;;;;;;5032504;28;20068;-26
2021/12/20 11:06:55;;;;;;;18.88;11.23;;;8.90;72.80;;;;;;5036375;28;20053;-25
2021/12/20 11:09:23;;;;;;;23.65;12.40;;;9.00;73.30;;;;;;5036256;28;20463;-25
2021/12/20 11:11:59;;;;;;;16.50;9.88;;;9.20;74.50;;;;;;5036732;28;20118;-25
2021/12/20 11:14:34;;;;;;;16.55;10.35;;;9.30;73.70;;;;;;5035887;28;20033;-26
2021/12/20 11:17:03;;;;;;;18.98;10.23;;;9.50;74.20;;;;;;5036392;28;20100;-25
2021/12/20 11:19:32;;;;;;;20.98;13.27;;;9.70;74.30;;;;;;5035905;28;20034;-26
2021/12/20 11:22:01;;;;;;;19.13;11.68;;;9.90;74.20;;;;;;5035850;28;20065;-26
2021/12/20 11:24:49;;;;;;;22.38;14.43;;;10.00;74.00;;;;;;5035959;28;20025;-26
2021/12/20 11:27:33;;;;;;;21.75;13.65;;;10.20;73.10;;;;;;5035763;28;20132;-26
2021/12/20 11:30:16;;;;;;;18.63;11.00;;;10.40;73.20;;;;;;5036675;28;20034;-25
2021/12/20 11:32:44;;;;;;;24.90;15.27;;;10.60;72.70;;;;;;5036127;28;20091;-26
2021/12/20 11:35:10;;;;;;;24.35;13.57;;;10.80;71.80;;;;;;5035950;28;20029;-27
2021/12/20 11:37:36;;;;;;;20.60;12.40;;;10.90;71.90;;;;;;5035547;28;20029;-26
2021/12/20 11:40:06;;;;;;;24.77;15.13;;;11.00;71.70;;;;;;5035610;28;20029;-27
2021/12/20 11:42:33;;;;;;;24.23;16.17;;;11.20;71.60;;;;;;5035624;28;20025;-26
2021/12/20 11:45:02;;;;;;;22.48;14.20;;;11.30;71.10;;;;;;5035844;28;20030;-26
2021/12/20 11:47:43;;;;;;;25.02;15.38;;;11.40;70.90;;;;;;5035614;28;20030;-26
2021/12/20 11:50:12;;;;;;;24.60;16.23;;;11.50;70.40;;;;;;5035475;28;20396;-25
2021/12/20 11:52:41;;;;;;;20.25;13.07;;;11.70;70.40;;;;;;5035234;28;20088;-25
2021/12/20 11:55:25;;;;;;;16.67;10.68;;;11.90;70.10;;;;;;5035201;28;20064;-26
2021/12/20 11:57:53;;;;;;;14.20;8.82;;;12.00;69.70;;;;;;5035285;28;20120;-25
2021/12/20 12:00:20;;;;;;;16.60;9.73;;;12.20;69.50;;;;;;5034974;28;20363;-26
2021/12/20 12:02:49;;;;;;;14.60;9.40;;;12.40;69.20;;;;;;5035145;28;20064;-26
2021/12/20 12:05:28;;;;;;;13.65;8.55;;;12.50;65.40;;;;;;5033919;28;20593;-25
2021/12/20 12:08:14;;;;;;;11.88;6.70;;;12.60;64.90;;;;;;5035173;28;20033;-26
2021/12/20 12:10:40;;;;;;;10.18;6.07;;;12.70;63.80;;;;;;5034862;28;20038;-27
2021/12/20 12:13:14;;;;;;;11.50;6.10;;;12.90;63.30;;;;;;5034992;28;20037;-27
2021/12/20 12:16:04;;;;;;;8.80;5.18;;;12.90;54.00;;;;;;5034519;28;20021;-26
2021/12/20 12:18:48;;;;;;;9.80;5.97;;;13.10;61.10;;;;;;5034763;28;20030;-27
2021/12/20 12:21:40;;;;;;;10.55;6.18;;;13.30;57.70;;;;;;5034895;28;20107;-26
2021/12/20 12:24:14;;;;;;;9.95;5.90;;;13.40;56.40;;;;;;5034717;28;20037;-26
2021/12/20 12:26:50;;;;;;;9.18;5.90;;;13.50;57.90;;;;;;5034616;28;20022;-27
2021/12/20 12:29:25;;;;;;;9.73;5.28;;;13.50;55.80;;;;;;5035040;28;20077;-26
2021/12/20 12:31:53;;;;;;;8.05;5.63;;;13.50;55.40;;;;;;5034693;28;20018;-26
2021/12/20 12:34:20;;;;;;;8.57;5.28;;;13.50;57.80;;;;;;5035173;28;20040;-26
2021/12/20 12:36:47;;;;;;;9.88;6.15;;;13.60;59.10;;;;;;5035003;28;20493;-26
2021/12/20 12:39:28;;;;;;;10.05;6.03;;;13.60;57.00;;;;;;5034749;28;20025;-26
2021/12/20 12:42:00;;;;;;;9.85;6.13;;;13.50;54.20;;;;;;5034413;28;20508;-26
2021/12/20 12:44:33;;;;;;;9.73;6.00;;;13.60;56.30;;;;;;5034222;28;20513;-27
2021/12/20 12:47:03;;;;;;;9.68;6.20;;;13.50;56.80;;;;;;5034318;28;20025;-27
2021/12/20 12:49:31;;;;;;;9.15;5.30;;;13.60;56.40;;;;;;5034669;28;20032;-26
2021/12/20 12:52:04;;;;;;;9.35;6.18;;;13.60;57.50;;;;;;5035348;28;20029;-26
2021/12/20 12:54:33;;;;;;;;;;;13.50;55.60;;;;;;5034404;28;20501;-27
2021/12/20 12:57:11;;;;;;;9.07;5.93;;;13.60;53.60;;;;;;5035287;28;19905;-26
2021/12/20 12:59:43;;;;;;;10.20;6.72;;;13.70;56.90;;;;;;5034109;28;20073;-26
2021/12/20 13:02:12;;;;;;;11.35;7.13;;;13.80;58.00;;;;;;5034016;28;20079;-27